Time;durP1;ratioP1;P1;durP2;ratioP2;P2;SDS_P1;SDS_P2;PMS_P1;PMS_P2;Temp;Humidity;BMP_temperature;BMP_pressure;BME280_temperature;BME280_humidity;BME280_pressure;Samples;Min_cycle;Max_cycle;Signal;HPM_P1;HPM_P2
2022/02/22 00:01:33;;;;;;;35.50;5.80;;;5.70;99.90;;;;;;5048232;28;20041;-82
2022/02/22 00:03:58;;;;;;;30.40;5.50;;;5.70;99.90;;;;;;5046955;28;20029;-82
2022/02/22 00:06:24;;;;;;;29.50;7.40;;;5.70;99.90;;;;;;5041174;28;20191;-82
2022/02/22 00:08:49;;;;;;;30.15;5.53;;;5.70;99.90;;;;;;5058939;28;20123;-82
2022/02/22 00:11:15;;;;;;;30.77;5.20;;;5.70;99.90;;;;;;5027718;28;20045;-82
2022/02/22 00:13:41;;;;;;;30.23;4.97;;;5.70;99.90;;;;;;5051119;28;20544;-82
2022/02/22 00:16:07;;;;;;;26.55;5.38;;;5.60;99.90;;;;;;5048478;28;20040;-81
2022/02/22 00:18:33;;;;;;;30.02;4.65;;;5.60;99.90;;;;;;5051540;28;20141;-82
2022/02/22 00:20:59;;;;;;;26.95;4.68;;;5.60;99.90;;;;;;5030868;28;20041;-82
2022/02/22 00:23:24;;;;;;;22.23;4.03;;;5.60;99.90;;;;;;5040818;28;20119;-82
2022/02/22 00:25:50;;;;;;;29.95;4.93;;;5.50;99.90;;;;;;5051063;28;20119;-82
2022/02/22 00:28:19;;;;;;;29.70;5.57;;;5.40;99.90;;;;;;5043750;28;20046;-82
2022/02/22 00:30:47;;;;;;;30.48;5.80;;;5.50;99.90;;;;;;5047955;28;20041;-82
2022/02/22 00:33:12;;;;;;;21.52;4.72;;;5.40;99.90;;;;;;5050887;28;20053;-82
2022/02/22 00:35:39;;;;;;;24.45;4.47;;;5.50;99.90;;;;;;5031642;28;20356;-83
2022/02/22 00:38:05;;;;;;;25.15;4.38;;;5.40;99.90;;;;;;5036273;28;20048;-82
2022/02/22 00:40:30;;;;;;;23.02;4.30;;;5.30;99.90;;;;;;5052482;28;20033;-82
2022/02/22 00:42:56;;;;;;;29.20;4.70;;;5.30;99.90;;;;;;5053219;28;20090;-82
2022/02/22 00:45:21;;;;;;;26.45;4.63;;;5.20;99.90;;;;;;5045032;28;20065;-82
2022/02/22 00:47:47;;;;;;;28.05;5.28;;;5.20;99.90;;;;;;5054721;28;20044;-82
2022/02/22 00:50:12;;;;;;;31.15;5.50;;;5.20;99.90;;;;;;5052434;28;20057;-81
2022/02/22 00:52:38;;;;;;;29.00;5.28;;;5.10;99.90;;;;;;5055761;28;20116;-82
2022/02/22 00:55:05;;;;;;;31.63;6.22;;;5.10;99.90;;;;;;5052761;28;20029;-82
2022/02/22 00:57:30;;;;;;;29.85;5.75;;;5.20;99.90;;;;;;5051132;28;20067;-82
2022/02/22 00:59:56;;;;;;;28.38;5.05;;;5.20;99.90;;;;;;5055206;28;20060;-82
2022/02/22 01:02:21;;;;;;;31.23;6.55;;;5.20;99.90;;;;;;5054652;28;20473;-82
2022/02/22 01:04:47;;;;;;;32.58;7.22;;;5.20;99.90;;;;;;5054803;28;20479;-82
2022/02/22 01:07:16;;;;;;;33.30;6.00;;;5.20;99.90;;;;;;5055169;28;20049;-83
2022/02/22 01:09:44;;;;;;;34.53;6.07;;;5.10;99.90;;;;;;5049566;28;20054;-82
2022/02/22 01:12:10;;;;;;;32.95;5.90;;;5.10;99.90;;;;;;5054401;28;20574;-82
2022/02/22 01:14:36;;;;;;;31.52;5.30;;;5.10;99.90;;;;;;5051114;28;20033;-82
2022/02/22 01:17:02;;;;;;;29.77;5.47;;;5.10;99.90;;;;;;5050717;28;20041;-82
2022/02/22 01:19:27;;;;;;;34.13;5.45;;;5.10;99.90;;;;;;5071486;28;20036;-83
2022/02/22 01:21:53;;;;;;;30.48;6.13;;;5.10;99.90;;;;;;5054065;28;20386;-82
2022/02/22 01:24:18;;;;;;;30.17;5.55;;;5.10;99.90;;;;;;5054485;28;20040;-82
2022/02/22 01:26:44;;;;;;;21.10;4.70;;;5.00;99.90;;;;;;5050538;28;20155;-82
2022/02/22 01:29:09;;;;;;;31.75;5.60;;;5.10;99.90;;;;;;5053650;28;20037;-82
2022/02/22 01:31:35;;;;;;;31.27;4.90;;;5.10;99.90;;;;;;5048101;28;20045;-82
2022/02/22 01:34:00;;;;;;;32.35;5.50;;;5.10;99.90;;;;;;5028539;28;20090;-82
2022/02/22 01:36:27;;;;;;;31.60;5.13;;;5.10;99.90;;;;;;5028837;28;20038;-82
2022/02/22 01:38:53;;;;;;;29.42;6.28;;;5.10;99.90;;;;;;5056225;28;20483;-82
2022/02/22 01:41:21;;;;;;;28.40;4.97;;;5.00;99.90;;;;;;5045808;28;20116;-82
2022/02/22 01:43:46;;;;;;;23.13;4.18;;;5.00;99.90;;;;;;5052177;28;20112;-82
2022/02/22 01:46:12;;;;;;;28.02;5.43;;;5.00;99.90;;;;;;5054050;28;20500;-82
2022/02/22 01:48:38;;;;;;;25.73;4.47;;;5.10;99.90;;;;;;5048127;28;20039;-82
2022/02/22 01:51:04;;;;;;;29.20;5.13;;;5.10;99.90;;;;;;5052203;28;20037;-82
2022/02/22 01:53:29;;;;;;;32.03;5.53;;;5.00;99.90;;;;;;5051256;28;20091;-82
2022/02/22 01:55:55;;;;;;;23.33;4.85;;;5.00;99.90;;;;;;5049094;28;20047;-82
2022/02/22 01:58:21;;;;;;;23.65;5.05;;;5.00;99.90;;;;;;5051959;28;20041;-82
2022/02/22 02:00:46;;;;;;;26.38;4.25;;;5.00;99.90;;;;;;5049871;28;20124;-82
2022/02/22 02:03:16;;;;;;;25.65;4.75;;;4.90;99.90;;;;;;5037137;28;20033;-82
2022/02/22 02:05:44;;;;;;;24.88;4.32;;;4.90;99.90;;;;;;5050152;28;20049;-81
2022/02/22 02:08:10;;;;;;;28.05;4.50;;;4.90;99.90;;;;;;5048482;28;20091;-83
2022/02/22 02:10:36;;;;;;;31.67;5.13;;;4.90;99.90;;;;;;5053936;28;20068;-83
2022/02/22 02:13:01;;;;;;;25.20;4.45;;;4.80;99.90;;;;;;5036924;28;20103;-82
2022/02/22 02:15:27;;;;;;;24.83;3.83;;;4.80;99.90;;;;;;5050469;28;20363;-82
2022/02/22 02:17:52;;;;;;;25.50;4.25;;;4.70;99.90;;;;;;5030302;28;20076;-82
2022/02/22 02:20:18;;;;;;;32.70;4.97;;;4.80;99.90;;;;;;5047570;28;20471;-83
2022/02/22 02:22:43;;;;;;;23.00;4.60;;;4.60;99.90;;;;;;5053405;28;20065;-82
2022/02/22 02:25:11;;;;;;;29.15;4.88;;;4.60;99.90;;;;;;5051240;28;20112;-82
2022/02/22 02:27:37;;;;;;;28.63;5.00;;;4.60;99.90;;;;;;5050965;28;20087;-82
2022/02/22 02:30:07;;;;;;;27.85;3.78;;;4.50;99.90;;;;;;5045942;28;20069;-82
2022/02/22 02:32:33;;;;;;;24.45;4.30;;;4.50;99.90;;;;;;5052673;28;20037;-83
2022/02/22 02:34:58;;;;;;;20.05;4.20;;;4.60;99.90;;;;;;5052513;28;20036;-82
2022/02/22 02:37:24;;;;;;;27.85;4.65;;;4.50;99.90;;;;;;5036360;28;20037;-82
2022/02/22 02:39:50;;;;;;;22.63;4.85;;;4.40;99.90;;;;;;5053423;28;20170;-82
2022/02/22 02:42:17;;;;;;;26.85;4.95;;;4.40;99.90;;;;;;5051393;28;20083;-83
2022/02/22 02:44:44;;;;;;;22.92;4.00;;;4.40;99.90;;;;;;5052887;28;20443;-82
2022/02/22 02:47:10;;;;;;;23.67;3.95;;;4.40;99.90;;;;;;5052356;28;20422;-83
2022/02/22 02:49:36;;;;;;;23.58;5.93;;;4.40;99.90;;;;;;5052963;28;20037;-82
2022/02/22 02:52:01;;;;;;;29.33;5.68;;;4.40;99.90;;;;;;5048199;28;20094;-82
2022/02/22 02:54:27;;;;;;;27.00;4.55;;;4.50;99.90;;;;;;5049939;28;20049;-83
2022/02/22 02:56:53;;;;;;;23.70;4.35;;;4.40;99.90;;;;;;5049989;28;20381;-82
2022/02/22 02:59:18;;;;;;;26.92;4.88;;;4.50;99.90;;;;;;5052522;28;20052;-82
2022/02/22 03:01:44;;;;;;;24.95;4.43;;;4.50;99.90;;;;;;5048862;28;20053;-82
2022/02/22 03:04:11;;;;;;;19.38;3.92;;;4.50;99.90;;;;;;5052509;28;20037;-82
2022/02/22 03:06:37;;;;;;;23.98;4.25;;;4.50;99.90;;;;;;5047779;28;20074;-82
2022/02/22 03:09:03;;;;;;;26.63;4.07;;;4.50;99.90;;;;;;5048918;28;20041;-82
2022/02/22 03:11:29;;;;;;;20.17;4.38;;;4.50;99.90;;;;;;5038395;28;20045;-82
2022/02/22 03:13:55;;;;;;;18.25;4.45;;;4.50;99.90;;;;;;5035474;28;20048;-82
2022/02/22 03:16:21;;;;;;;25.42;4.28;;;4.40;99.90;;;;;;5052126;28;20037;-82
2022/02/22 03:18:47;;;;;;;24.45;4.05;;;4.40;99.90;;;;;;5052567;28;20040;-82
2022/02/22 03:21:13;;;;;;;26.40;4.65;;;4.40;99.90;;;;;;5047063;28;20128;-82
2022/02/22 03:23:39;;;;;;;23.08;4.00;;;4.30;99.90;;;;;;5050003;28;20038;-82
2022/02/22 03:26:04;;;;;;;24.90;4.40;;;4.30;99.90;;;;;;5032959;28;20040;-82
2022/02/22 03:28:31;;;;;;;24.55;4.00;;;4.20;99.90;;;;;;5035707;28;20041;-82
2022/02/22 03:30:58;;;;;;;15.25;3.65;;;4.20;99.90;;;;;;5052028;28;20053;-82
2022/02/22 03:33:24;;;;;;;26.63;4.63;;;4.10;99.90;;;;;;5035789;28;20139;-82
2022/02/22 03:35:50;;;;;;;23.20;3.97;;;4.10;99.90;;;;;;5052090;28;20048;-82
2022/02/22 03:38:15;;;;;;;24.75;4.10;;;4.00;99.90;;;;;;5051601;28;20495;-82
2022/02/22 03:40:41;;;;;;;31.52;4.32;;;4.00;99.90;;;;;;5028922;28;20045;-82
2022/02/22 03:43:07;;;;;;;23.38;4.43;;;3.90;99.90;;;;;;5051335;28;20033;-82
2022/02/22 03:45:33;;;;;;;25.85;4.53;;;3.90;99.90;;;;;;5044532;28;20079;-82
2022/02/22 03:47:59;;;;;;;28.83;4.75;;;3.90;99.90;;;;;;5050933;28;20044;-82
2022/02/22 03:50:25;;;;;;;27.15;4.70;;;3.80;99.90;;;;;;5035374;28;20099;-82
2022/02/22 03:52:51;;;;;;;24.27;3.70;;;3.90;99.90;;;;;;5048884;28;20088;-82
2022/02/22 03:55:17;;;;;;;27.35;4.82;;;3.80;99.90;;;;;;5049657;28;20069;-82
2022/02/22 03:57:43;;;;;;;22.50;3.85;;;3.90;99.90;;;;;;5045844;28;20126;-82
2022/02/22 04:00:18;;;;;;;26.80;3.90;;;3.80;99.90;;;;;;5047664;28;20052;-82
2022/02/22 04:02:44;;;;;;;20.17;3.50;;;3.70;99.90;;;;;;5051620;28;20037;-82
2022/02/22 04:05:11;;;;;;;27.10;5.53;;;3.70;99.90;;;;;;5031577;28;20075;-82
2022/02/22 04:07:37;;;;;;;22.33;3.97;;;3.70;99.90;;;;;;5037817;28;20475;-82
2022/02/22 04:10:05;;;;;;;22.15;5.07;;;3.70;99.90;;;;;;5051134;28;20538;-82
2022/02/22 04:12:31;;;;;;;30.75;4.50;;;3.70;99.90;;;;;;5034667;28;20033;-82
2022/02/22 04:14:56;;;;;;;23.50;4.10;;;3.60;99.90;;;;;;5055273;28;20043;-82
2022/02/22 04:17:22;;;;;;;21.58;3.58;;;3.60;99.90;;;;;;5054887;28;20041;-82
2022/02/22 04:19:49;;;;;;;22.83;4.32;;;3.60;99.90;;;;;;5052895;28;20029;-83
2022/02/22 04:22:15;;;;;;;28.95;4.55;;;3.60;99.90;;;;;;5042212;22;20053;-81
2022/02/22 04:24:41;;;;;;;28.25;4.70;;;3.60;99.90;;;;;;5012799;28;20045;-82
2022/02/22 04:27:07;;;;;;;23.25;4.47;;;3.50;99.90;;;;;;5016247;28;20037;-82
2022/02/22 04:29:32;;;;;;;22.75;4.45;;;3.50;99.90;;;;;;5016110;28;20045;-81
2022/02/22 04:31:58;;;;;;;25.23;5.68;;;3.50;99.90;;;;;;5016049;28;20050;-81
2022/02/22 04:34:24;;;;;;;25.52;4.63;;;3.50;99.90;;;;;;5014012;28;20058;-81
2022/02/22 04:36:50;;;;;;;26.35;4.45;;;3.50;99.90;;;;;;5000213;28;20061;-81
2022/02/22 04:39:16;;;;;;;24.92;4.18;;;3.50;99.90;;;;;;5016429;28;20042;-82
2022/02/22 04:41:41;;;;;;;19.50;3.97;;;3.40;99.90;;;;;;5015064;28;20133;-81
2022/02/22 04:44:07;;;;;;;24.05;4.20;;;3.40;99.90;;;;;;5015368;28;20034;-81
2022/02/22 04:46:33;;;;;;;27.80;3.97;;;3.40;99.90;;;;;;5009816;28;20117;-82
2022/02/22 04:48:58;;;;;;;25.83;4.57;;;3.40;99.90;;;;;;5014412;28;20049;-81
2022/02/22 04:51:24;;;;;;;23.13;3.97;;;3.50;99.90;;;;;;5016395;28;20057;-81
2022/02/22 04:53:50;;;;;;;21.42;4.15;;;3.50;99.90;;;;;;5013744;28;20042;-82
2022/02/22 04:56:15;;;;;;;25.42;4.32;;;3.50;99.90;;;;;;5014545;28;20344;-82
2022/02/22 04:58:41;;;;;;;23.77;4.63;;;3.50;99.90;;;;;;5012979;28;20073;-82
2022/02/22 05:01:07;;;;;;;30.70;4.32;;;3.60;99.90;;;;;;5014932;28;20045;-82
2022/02/22 05:03:32;;;;;;;26.10;4.35;;;3.60;99.90;;;;;;5001125;28;20523;-82
2022/02/22 05:05:58;;;;;;;32.80;4.65;;;3.60;99.90;;;;;;5015509;28;20044;-82
2022/02/22 05:08:24;;;;;;;29.25;4.93;;;3.60;99.90;;;;;;5015143;28;20073;-82
2022/02/22 05:10:49;;;;;;;26.23;4.93;;;3.60;99.90;;;;;;5015303;28;20076;-82
2022/02/22 05:13:15;;;;;;;23.00;4.18;;;3.60;99.90;;;;;;4997643;28;20111;-82
2022/02/22 05:15:41;;;;;;;27.95;4.50;;;3.60;99.90;;;;;;5017389;28;20045;-82
2022/02/22 05:18:06;;;;;;;27.55;4.28;;;3.60;99.90;;;;;;5015568;28;20510;-81
2022/02/22 05:20:32;;;;;;;21.80;4.30;;;3.60;99.90;;;;;;5014719;28;20038;-82
2022/02/22 05:22:58;;;;;;;22.60;4.43;;;3.60;99.90;;;;;;5018198;28;20480;-82
2022/02/22 05:25:24;;;;;;;32.95;4.75;;;3.70;99.90;;;;;;5000641;28;20076;-82
2022/02/22 05:27:50;;;;;;;25.55;5.22;;;3.70;99.90;;;;;;5015022;28;20125;-82
2022/02/22 05:30:17;;;;;;;24.08;4.03;;;3.70;99.90;;;;;;5013931;28;20072;-82
2022/02/22 05:32:43;;;;;;;24.88;3.92;;;3.70;99.90;;;;;;5014626;28;20054;-81
2022/02/22 05:35:11;;;;;;;27.20;5.18;;;3.70;99.90;;;;;;4998637;28;20030;-82
2022/02/22 05:37:37;;;;;;;22.88;4.15;;;3.70;99.90;;;;;;5014844;28;20037;-82
2022/02/22 05:40:04;;;;;;;27.83;4.55;;;3.70;99.90;;;;;;5014518;28;20037;-82
2022/02/22 05:42:30;;;;;;;26.15;4.47;;;3.70;99.90;;;;;;4997849;28;20108;-82
2022/02/22 05:44:56;;;;;;;28.83;4.40;;;3.70;99.90;;;;;;5013981;28;20471;-82
2022/02/22 05:47:22;;;;;;;26.50;4.75;;;3.70;99.90;;;;;;5014055;28;20491;-82
2022/02/22 05:49:48;;;;;;;22.20;4.13;;;3.70;99.90;;;;;;5005563;28;20047;-82
2022/02/22 05:52:14;;;;;;;23.92;4.05;;;3.80;99.90;;;;;;5013086;28;20045;-81
2022/02/22 05:54:41;;;;;;;25.63;3.97;;;3.70;99.90;;;;;;5014792;28;20599;-82
2022/02/22 05:57:06;;;;;;;23.00;3.72;;;3.80;99.90;;;;;;5014070;28;20068;-82
2022/02/22 05:59:32;;;;;;;25.35;4.07;;;3.80;99.90;;;;;;5013092;28;20029;-82
2022/02/22 06:01:58;;;;;;;24.13;4.30;;;3.80;99.90;;;;;;5014028;28;20615;-82
2022/02/22 06:04:26;;;;;;;22.90;4.32;;;3.80;99.90;;;;;;4995008;28;20034;-82
2022/02/22 06:06:52;;;;;;;25.92;4.28;;;3.90;99.90;;;;;;5013295;28;20046;-83
2022/02/22 06:09:17;;;;;;;23.50;4.38;;;3.90;99.90;;;;;;5013601;28;20041;-82
2022/02/22 06:11:43;;;;;;;32.15;4.88;;;3.90;99.90;;;;;;5011773;28;20124;-82
2022/02/22 06:14:09;;;;;;;28.15;5.30;;;3.80;99.90;;;;;;5015292;28;20046;-82
2022/02/22 06:16:34;;;;;;;27.23;4.47;;;3.80;99.90;;;;;;4994090;28;20487;-82
2022/02/22 06:19:00;;;;;;;29.85;4.68;;;3.80;99.90;;;;;;5006585;28;20114;-82
2022/02/22 06:21:25;;;;;;;23.13;4.25;;;3.70;99.90;;;;;;4993824;28;20051;-82
2022/02/22 06:23:51;;;;;;;27.42;4.10;;;3.70;99.90;;;;;;5011790;28;20048;-82
2022/02/22 06:26:17;;;;;;;28.30;4.68;;;3.60;99.90;;;;;;5014638;28;20041;-82
2022/02/22 06:28:42;;;;;;;27.60;3.95;;;3.60;99.90;;;;;;5013409;28;20038;-82
2022/02/22 06:31:08;;;;;;;21.27;4.15;;;3.60;99.90;;;;;;5015405;28;20065;-82
2022/02/22 06:33:34;;;;;;;28.67;4.45;;;3.60;99.90;;;;;;4996975;28;20046;-82
2022/02/22 06:36:00;;;;;;;25.27;4.05;;;3.50;99.90;;;;;;5012145;28;20466;-81
2022/02/22 06:38:26;;;;;;;28.33;4.65;;;3.50;99.90;;;;;;5013573;28;20073;-82
2022/02/22 06:40:52;;;;;;;21.80;4.70;;;3.50;99.90;;;;;;5013130;28;20722;-82
2022/02/22 06:43:17;;;;;;;30.80;5.93;;;3.50;99.90;;;;;;4993468;28;20471;-82
2022/02/22 06:45:43;;;;;;;27.88;4.28;;;3.50;99.90;;;;;;5013234;28;20041;-82
2022/02/22 06:48:11;;;;;;;32.17;4.47;;;3.50;99.90;;;;;;5010756;28;20463;-82
2022/02/22 06:50:37;;;;;;;29.35;5.00;;;3.50;99.90;;;;;;5012621;28;20522;-81
2022/02/22 06:53:03;;;;;;;32.83;4.55;;;3.60;99.90;;;;;;5012832;28;20073;-82
2022/02/22 06:55:29;;;;;;;29.02;4.72;;;3.60;99.90;;;;;;5012775;28;20077;-82
2022/02/22 06:58:03;;;;;;;31.63;5.45;;;3.60;99.90;;;;;;4992912;28;20145;-82
2022/02/22 07:00:29;;;;;;;32.10;5.63;;;3.60;99.90;;;;;;4994588;28;20046;-82
2022/02/22 07:02:55;;;;;;;28.60;4.18;;;3.70;99.90;;;;;;5013167;28;20034;-82
2022/02/22 07:05:21;;;;;;;22.73;4.30;;;3.60;99.90;;;;;;5012434;28;20036;-82
2022/02/22 07:07:46;;;;;;;34.00;5.18;;;3.60;99.90;;;;;;4997089;28;20446;-82
2022/02/22 07:10:12;;;;;;;29.85;5.28;;;3.70;99.90;;;;;;5012938;28;20096;-82
2022/02/22 07:12:37;;;;;;;24.92;5.88;;;3.70;99.90;;;;;;4996816;28;20037;-82
2022/02/22 07:15:05;;;;;;;31.77;4.80;;;3.80;99.90;;;;;;4996507;28;20034;-82
2022/02/22 07:17:30;;;;;;;24.33;5.03;;;3.90;99.90;;;;;;5012622;28;20103;-82
2022/02/22 07:19:56;;;;;;;25.02;4.63;;;3.90;99.90;;;;;;5013455;28;20037;-82
2022/02/22 07:22:22;;;;;;;29.48;4.05;;;3.90;99.90;;;;;;5029402;28;20383;-82
2022/02/22 07:24:48;;;;;;;24.00;4.47;;;3.90;99.90;;;;;;5012513;28;20042;-82
2022/02/22 07:27:13;;;;;;;33.17;4.90;;;3.90;99.90;;;;;;5012576;28;20377;-82
2022/02/22 07:29:39;;;;;;;34.60;5.15;;;4.10;99.90;;;;;;5012278;28;20483;-82
2022/02/22 07:32:05;;;;;;;22.42;4.78;;;4.20;99.90;;;;;;5006129;28;20045;-82
2022/02/22 07:34:31;;;;;;;23.10;4.15;;;4.40;99.90;;;;;;4999186;28;20124;-82
2022/02/22 07:36:56;;;;;;;35.95;5.28;;;4.40;99.90;;;;;;5012897;28;20049;-82
2022/02/22 07:39:22;;;;;;;28.52;4.70;;;4.50;99.90;;;;;;5029120;28;20053;-81
2022/02/22 07:41:47;;;;;;;23.42;4.90;;;4.60;99.90;;;;;;5012342;28;20042;-81
2022/02/22 07:44:13;;;;;;;24.45;4.15;;;4.70;99.90;;;;;;5012462;28;20044;-82
2022/02/22 07:46:38;;;;;;;33.60;4.32;;;4.70;99.90;;;;;;5011718;28;20033;-82
2022/02/22 07:49:06;;;;;;;24.33;4.60;;;4.80;99.90;;;;;;4995666;28;20568;-82
2022/02/22 07:51:31;;;;;;;28.20;4.72;;;4.80;99.90;;;;;;5013165;28;20128;-82
2022/02/22 07:53:57;;;;;;;26.08;4.70;;;4.90;99.90;;;;;;5005769;28;20122;-82
2022/02/22 07:56:23;;;;;;;31.02;4.93;;;4.80;99.90;;;;;;5010047;28;20046;-82
2022/02/22 07:58:48;;;;;;;25.58;4.57;;;4.80;99.90;;;;;;5011972;28;20049;-82
2022/02/22 08:01:14;;;;;;;29.13;4.20;;;4.90;99.90;;;;;;4987123;28;20042;-82
2022/02/22 08:03:43;;;;;;;27.40;4.70;;;4.90;99.90;;;;;;5007138;28;20045;-82
2022/02/22 08:06:10;;;;;;;26.05;4.50;;;5.00;99.90;;;;;;4996003;28;20042;-82
2022/02/22 08:08:36;;;;;;;20.52;4.32;;;5.00;99.90;;;;;;5006427;28;20615;-82
2022/02/22 08:11:02;;;;;;;26.63;4.05;;;5.00;99.90;;;;;;5007762;28;20061;-82
2022/02/22 08:13:27;;;;;;;29.85;4.72;;;5.20;99.90;;;;;;5008114;28;20038;-82
2022/02/22 08:15:53;;;;;;;29.83;4.35;;;5.30;99.90;;;;;;5000517;28;20144;-82
2022/02/22 08:18:18;;;;;;;23.67;4.40;;;5.40;99.90;;;;;;5009941;28;20095;-81
2022/02/22 08:20:44;;;;;;;22.15;3.67;;;5.50;99.90;;;;;;5009688;28;20037;-81
2022/02/22 08:23:09;;;;;;;28.13;4.15;;;5.50;99.90;;;;;;4989438;28;20149;-81
2022/02/22 08:25:35;;;;;;;27.80;4.20;;;5.60;99.90;;;;;;4988547;28;20061;-81
2022/02/22 08:28:07;;;;;;;24.48;4.22;;;5.70;99.90;;;;;;4987471;28;20038;-81
2022/02/22 08:30:34;;;;;;;;;;;5.80;99.90;;;;;;4974486;28;20085;-82
2022/02/22 08:33:00;;;;;;;25.05;3.83;;;5.90;99.90;;;;;;4990767;28;20375;-82
2022/02/22 08:35:25;;;;;;;24.77;3.50;;;6.00;99.90;;;;;;4991171;28;20046;-83
2022/02/22 08:37:53;;;;;;;20.83;4.43;;;6.10;99.90;;;;;;4990416;28;20121;-82
2022/02/22 08:40:19;;;;;;;22.25;3.90;;;6.10;99.90;;;;;;4988159;28;20068;-81
2022/02/22 08:42:44;;;;;;;24.38;3.90;;;6.10;99.90;;;;;;4991567;28;20124;-81
2022/02/22 08:45:10;;;;;;;21.35;3.70;;;6.20;99.90;;;;;;4990872;28;20042;-81
2022/02/22 08:47:36;;;;;;;23.30;4.15;;;6.30;99.90;;;;;;4990845;28;20038;-82
2022/02/22 08:50:01;;;;;;;19.77;3.58;;;6.30;99.90;;;;;;4991504;28;20066;-81
2022/02/22 08:52:29;;;;;;;18.58;3.42;;;6.40;99.90;;;;;;4991311;28;20495;-82
2022/02/22 08:54:56;;;;;;;20.75;4.10;;;6.50;99.90;;;;;;4985103;28;20210;-82
2022/02/22 08:57:21;;;;;;;20.20;3.95;;;6.50;99.90;;;;;;4991865;28;20046;-81
2022/02/22 08:59:47;;;;;;;22.23;3.30;;;6.80;99.90;;;;;;4994250;28;20546;-81
2022/02/22 09:02:13;;;;;;;23.52;4.22;;;6.90;99.90;;;;;;4989295;28;20039;-82
2022/02/22 09:04:39;;;;;;;16.42;3.30;;;7.00;99.90;;;;;;4991971;28;20037;-82
2022/02/22 09:07:05;;;;;;;24.02;4.00;;;7.10;99.90;;;;;;4981309;28;20046;-82
2022/02/22 09:09:30;;;;;;;23.95;4.22;;;7.10;99.90;;;;;;4991136;28;20484;-84
2022/02/22 09:11:56;;;;;;;20.45;3.90;;;7.10;99.90;;;;;;4995985;28;20053;-82
2022/02/22 09:14:22;;;;;;;21.55;3.75;;;7.20;99.90;;;;;;5009742;28;20126;-82
2022/02/22 09:16:48;;;;;;;23.00;3.47;;;7.20;99.90;;;;;;4995376;28;20042;-82
2022/02/22 09:19:14;;;;;;;18.60;3.72;;;7.30;99.90;;;;;;4995303;28;20053;-82
2022/02/22 09:21:39;;;;;;;21.50;3.65;;;7.30;99.90;;;;;;4984514;28;20531;-82
2022/02/22 09:24:05;;;;;;;12.80;2.75;;;7.30;99.90;;;;;;5013918;28;20538;-82
2022/02/22 09:26:31;;;;;;;20.55;4.13;;;7.40;99.90;;;;;;5014997;28;20479;-82
2022/02/22 09:28:58;;;;;;;18.65;3.50;;;7.40;99.90;;;;;;5015219;28;20058;-82
2022/02/22 09:31:25;;;;;;;18.92;3.50;;;7.30;99.90;;;;;;5010230;28;20052;-82
2022/02/22 09:33:51;;;;;;;23.08;3.47;;;7.40;99.90;;;;;;5014461;28;20096;-82
2022/02/22 09:36:17;;;;;;;17.77;4.55;;;7.40;99.90;;;;;;5013682;28;20033;-82
2022/02/22 09:38:43;;;;;;;21.25;3.60;;;7.50;99.90;;;;;;5014194;28;20389;-83
2022/02/22 09:41:10;;;;;;;15.10;3.03;;;7.50;99.90;;;;;;5013659;28;20041;-82
2022/02/22 09:43:36;;;;;;;20.88;4.55;;;7.50;99.90;;;;;;5011255;28;20030;-83
2022/02/22 09:46:03;;;;;;;19.63;3.42;;;7.40;99.90;;;;;;5014262;28;20092;-81
2022/02/22 09:48:29;;;;;;;15.38;3.50;;;7.50;99.90;;;;;;5007659;28;20069;-82
2022/02/22 09:50:56;;;;;;;14.07;3.28;;;;;;;;;;5014498;28;20042;-82
2022/02/22 09:53:22;;;;;;;17.15;4.28;;;7.50;99.90;;;;;;5014052;28;20042;-82
2022/02/22 09:55:48;;;;;;;18.35;3.50;;;7.50;99.90;;;;;;5012791;28;20070;-82
2022/02/22 09:58:15;;;;;;;13.35;4.15;;;7.60;99.90;;;;;;4997695;28;20038;-82
2022/02/22 10:00:41;;;;;;;20.15;4.45;;;7.60;99.90;;;;;;5013420;28;20042;-82
2022/02/22 10:03:17;;;;;;;22.13;5.43;;;7.60;99.90;;;;;;5009188;28;20049;-81
2022/02/22 10:05:52;;;;;;;24.02;5.55;;;7.60;99.90;;;;;;5011776;28;20062;-82
2022/02/22 10:08:35;;;;;;;19.98;5.38;;;7.60;99.90;;;;;;5011071;28;20434;-83
2022/02/22 10:11:09;;;;;;;19.90;5.40;;;7.70;99.90;;;;;;5027792;28;20049;-83
2022/02/22 10:13:36;;;;;;;16.25;5.40;;;7.80;99.90;;;;;;5013414;28;20069;-83
2022/02/22 10:16:13;;;;;;;24.08;6.45;;;7.80;99.90;;;;;;5006655;28;20137;-82
2022/02/22 10:18:49;;;;;;;24.50;6.60;;;7.80;99.90;;;;;;5010860;28;20050;-83
2022/02/22 10:21:17;;;;;;;18.00;5.13;;;7.70;99.90;;;;;;5006853;28;20046;-83
2022/02/22 10:23:43;;;;;;;23.92;6.05;;;7.80;99.90;;;;;;5011799;28;20048;-82
2022/02/22 10:26:22;;;;;;;21.25;6.38;;;7.80;99.90;;;;;;5012829;28;20034;-82
2022/02/22 10:28:48;;;;;;;28.60;6.40;;;8.00;99.90;;;;;;4997638;28;20042;-83
2022/02/22 10:31:14;;;;;;;31.15;6.45;;;7.90;99.90;;;;;;5013165;28;20057;-82
2022/02/22 10:33:44;;;;;;;19.80;5.63;;;8.00;99.90;;;;;;5005782;28;20042;-82
2022/02/22 10:36:18;;;;;;;22.02;6.90;;;8.10;99.90;;;;;;5016276;28;20038;-83
2022/02/22 10:38:43;;;;;;;24.88;5.90;;;8.20;99.90;;;;;;4995173;28;20400;-83
2022/02/22 10:41:15;;;;;;;19.75;5.60;;;8.20;99.90;;;;;;5013114;28;20037;-82
2022/02/22 10:43:52;;;;;;;22.60;6.28;;;8.30;99.90;;;;;;5012200;28;20052;-83
2022/02/22 10:46:27;;;;;;;21.88;5.90;;;8.30;99.90;;;;;;5014445;28;20073;-83
2022/02/22 10:49:04;;;;;;;23.20;5.32;;;8.30;99.90;;;;;;5010916;28;20033;-82
2022/02/22 10:51:41;;;;;;;24.15;5.55;;;8.30;99.90;;;;;;5008873;28;20048;-82
2022/02/22 10:54:08;;;;;;;23.13;4.90;;;8.30;99.90;;;;;;4991659;28;20387;-82
2022/02/22 10:56:35;;;;;;;29.13;6.53;;;8.30;99.90;;;;;;5011869;28;20077;-83
2022/02/22 10:59:04;;;;;;;24.67;4.70;;;8.40;99.90;;;;;;5038918;28;20045;-82
2022/02/22 11:01:30;;;;;;;18.70;4.72;;;8.40;99.90;;;;;;5015335;28;20491;-82
2022/02/22 11:03:55;;;;;;;20.45;4.95;;;8.40;99.90;;;;;;5008999;28;20121;-83
2022/02/22 11:06:22;;;;;;;25.92;5.75;;;8.40;99.90;;;;;;5011314;28;20057;-83
2022/02/22 11:08:50;;;;;;;19.08;4.97;;;8.50;99.90;;;;;;5011169;28;20037;-82
2022/02/22 11:11:27;;;;;;;18.88;5.07;;;8.50;99.90;;;;;;5012595;28;20487;-83
2022/02/22 11:14:02;;;;;;;19.10;4.72;;;8.60;99.90;;;;;;5011559;28;20464;-83
2022/02/22 11:16:41;;;;;;;21.67;4.30;;;8.60;99.90;;;;;;5006602;28;20037;-84
2022/02/22 11:19:19;;;;;;;19.67;4.95;;;8.60;99.90;;;;;;5029010;28;20037;-82
2022/02/22 11:21:46;;;;;;;21.33;4.63;;;8.60;99.90;;;;;;5003422;28;20057;-83
2022/02/22 11:24:14;;;;;;;18.38;4.20;;;8.60;99.90;;;;;;4990240;28;20038;-83
2022/02/22 11:26:47;;;;;;;18.83;4.70;;;8.60;99.90;;;;;;4994645;28;20074;-84
2022/02/22 11:29:14;;;;;;;19.65;5.07;;;8.50;99.90;;;;;;4992037;28;20085;-80
2022/02/22 11:31:40;;;;;;;20.50;4.85;;;8.50;99.90;;;;;;4979123;28;20366;-80
2022/02/22 11:34:05;;;;;;;23.77;5.68;;;8.40;99.90;;;;;;4980383;28;20046;-80
2022/02/22 11:36:37;;;;;;;23.95;4.80;;;8.50;99.90;;;;;;4993715;28;20101;-81
2022/02/22 11:39:18;;;;;;;21.95;4.15;;;8.50;99.90;;;;;;4993614;28;20074;-80
2022/02/22 11:41:44;;;;;;;18.67;4.35;;;8.50;99.90;;;;;;4994936;28;20092;-80
2022/02/22 11:44:16;;;;;;;22.17;5.57;;;8.60;99.90;;;;;;4992860;28;20472;-79
2022/02/22 11:46:44;;;;;;;;;;;8.50;99.90;;;;;;4992033;28;20453;-80
2022/02/22 11:49:12;;;;;;;20.92;4.63;;;8.50;99.90;;;;;;5007700;28;19918;-80
2022/02/22 11:51:41;;;;;;;22.27;5.20;;;8.40;99.90;;;;;;4985550;28;20053;-80
2022/02/22 11:54:18;;;;;;;18.60;4.90;;;8.50;99.90;;;;;;4993324;28;20484;-80
2022/02/22 11:56:43;;;;;;;23.77;5.15;;;8.40;99.90;;;;;;5003677;28;20065;-80
2022/02/22 11:59:17;;;;;;;19.40;4.80;;;8.40;99.90;;;;;;4974120;28;20054;-83
2022/02/22 12:01:48;;;;;;;24.10;5.15;;;8.40;99.90;;;;;;4975948;28;20039;-82
2022/02/22 12:04:23;;;;;;;21.17;4.78;;;8.30;99.90;;;;;;4970391;28;20380;-83
2022/02/22 12:06:49;;;;;;;22.00;4.22;;;8.30;99.90;;;;;;4972351;28;20035;-82
2022/02/22 12:09:15;;;;;;;18.65;4.93;;;8.20;99.90;;;;;;4964177;28;20049;-83
2022/02/22 12:11:41;;;;;;;19.80;4.75;;;8.20;99.90;;;;;;4980002;28;20038;-83
2022/02/22 12:14:11;;;;;;;24.42;5.35;;;8.20;99.90;;;;;;4984364;28;20049;-82
2022/02/22 12:16:42;;;;;;;20.30;5.30;;;8.10;99.90;;;;;;4993164;28;20125;-82
2022/02/22 12:19:11;;;;;;;18.63;5.13;;;8.00;99.90;;;;;;4993403;28;20038;-83
2022/02/22 12:21:37;;;;;;;21.55;4.78;;;8.00;99.90;;;;;;4998126;28;20523;-82
2022/02/22 12:24:08;;;;;;;17.85;4.38;;;7.90;99.90;;;;;;5010616;28;20100;-82
2022/02/22 12:26:37;;;;;;;19.98;6.30;;;7.90;99.90;;;;;;5013502;28;20041;-82
2022/02/22 12:29:06;;;;;;;24.40;5.68;;;7.90;99.90;;;;;;4998010;28;20049;-82
2022/02/22 12:31:34;;;;;;;24.33;5.68;;;7.90;99.90;;;;;;4998821;28;20072;-82
2022/02/22 12:34:11;;;;;;;24.92;5.53;;;7.90;99.90;;;;;;4996101;28;20041;-82
2022/02/22 12:36:38;;;;;;;22.35;6.53;;;7.90;99.90;;;;;;5015787;28;20427;-82
2022/02/22 12:39:15;;;;;;;22.55;6.15;;;7.80;99.90;;;;;;5013915;28;20038;-82
2022/02/22 12:41:47;;;;;;;29.77;6.90;;;7.80;99.90;;;;;;4998625;28;20050;-83
2022/02/22 12:44:16;;;;;;;22.50;5.90;;;7.80;99.90;;;;;;5013729;28;20034;-82
2022/02/22 12:46:43;;;;;;;23.25;7.38;;;7.80;99.90;;;;;;5011056;28;20522;-82